createdAt,value
2019-04-01T00:00:52.695Z,101774.42
2019-04-01T00:03:21.026Z,101777.03
2019-04-01T00:05:49.307Z,101781.88
2019-04-01T00:08:17.616Z,101776.83
2019-04-01T00:10:45.907Z,101774.38
2019-04-01T00:13:14.224Z,101775.11
2019-04-01T00:15:42.508Z,101779.55
2019-04-01T00:18:10.814Z,101775.50
2019-04-01T00:20:39.431Z,101770.85
2019-04-01T00:23:07.876Z,101767.20
2019-04-01T00:25:36.276Z,101773.11
2019-04-01T00:28:04.633Z,101765.75
2019-04-01T00:30:32.928Z,101766.45
2019-04-01T00:33:01.230Z,101768.68
2019-04-01T00:35:29.547Z,101766.08
2019-04-01T00:37:57.845Z,101766.38
2019-04-01T00:40:26.214Z,101766.61
2019-04-01T00:42:56.171Z,101764.09
2019-04-01T00:45:26.408Z,101766.86
2019-04-01T00:47:54.718Z,101766.56
2019-04-01T00:50:23.023Z,101758.16
2019-04-01T00:52:51.654Z,101755.34
2019-04-01T00:55:20.220Z,101758.47
2019-04-01T00:57:48.503Z,101749.20
2019-04-01T01:00:17.960Z,101754.20
2019-04-01T01:02:46.589Z,101751.29
2019-04-01T01:05:14.888Z,101751.38
2019-04-01T01:07:43.195Z,101748.78
2019-04-01T01:10:11.782Z,101744.31
2019-04-01T01:12:40.310Z,101747.01
2019-04-01T01:15:08.701Z,101738.42
2019-04-01T01:17:37.283Z,101742.05
2019-04-01T01:20:06.745Z,101744.66
2019-04-01T01:22:35.060Z,101743.88
2019-04-01T01:25:04.343Z,101738.36
2019-04-01T01:27:32.931Z,101731.95
2019-04-01T01:30:01.220Z,101739.30
2019-04-01T01:32:29.619Z,101740.23
2019-04-01T01:34:58.014Z,101736.59
2019-04-01T01:37:27.072Z,101737.06
2019-04-01T01:39:56.421Z,101725.06
2019-04-01T01:42:24.701Z,101733.72
2019-04-01T01:44:53.033Z,101726.13
2019-04-01T01:47:21.310Z,101722.56
2019-04-01T01:49:49.981Z,101723.67
2019-04-01T01:52:18.277Z,101725.28
2019-04-01T01:54:46.612Z,101715.42
2019-04-01T01:57:15.215Z,101718.66
2019-04-01T01:59:43.542Z,101712.30
2019-04-01T02:02:11.838Z,101717.41
2019-04-01T02:04:40.141Z,101706.00
2019-04-01T02:07:08.454Z,101709.54
2019-04-01T02:09:36.847Z,101704.86
2019-04-01T02:12:05.140Z,101703.41
2019-04-01T02:14:33.781Z,101705.79
2019-04-01T02:17:02.058Z,101700.27
2019-04-01T02:19:30.360Z,101701.11
2019-04-01T02:21:58.638Z,101699.19
2019-04-01T02:24:26.953Z,101691.01
2019-04-01T02:26:55.247Z,101694.51
2019-04-01T02:29:23.542Z,101701.27
2019-04-01T02:31:51.837Z,101696.52
2019-04-01T02:34:20.176Z,101688.44
2019-04-01T02:36:48.778Z,101697.55
2019-04-01T02:39:17.085Z,101687.35
2019-04-01T02:41:45.387Z,101690.79
2019-04-01T02:44:13.919Z,101696.70
2019-04-01T02:46:42.228Z,101695.56
2019-04-01T02:49:10.554Z,101691.75
2019-04-01T02:51:38.872Z,101691.90
2019-04-01T02:54:07.163Z,101685.83
2019-04-01T02:56:35.479Z,101684.16
2019-04-01T02:59:03.785Z,101689.67
2019-04-01T03:01:32.095Z,101685.14
2019-04-01T03:04:00.401Z,101679.72
2019-04-01T03:06:28.708Z,101676.59
2019-04-01T03:08:56.986Z,101675.66
2019-04-01T03:11:25.261Z,101671.76
2019-04-01T03:13:53.579Z,101666.95
2019-04-01T03:16:21.888Z,101671.94
2019-04-01T03:18:50.327Z,101671.53
2019-04-01T03:21:18.669Z,101666.20
2019-04-01T03:23:46.997Z,101664.80
2019-04-01T03:26:15.300Z,101667.03
2019-04-01T03:28:43.908Z,101662.81
2019-04-01T03:31:12.308Z,101661.05
2019-04-01T03:33:40.631Z,101661.61
2019-04-01T03:36:09.083Z,101652.09
2019-04-01T03:38:37.639Z,101656.15
2019-04-01T03:41:06.497Z,101661.30
2019-04-01T03:43:34.809Z,101661.20
2019-04-01T03:46:03.106Z,101658.70
2019-04-01T03:48:31.387Z,101662.50
2019-04-01T03:50:59.680Z,101658.99
2019-04-01T03:53:27.989Z,101663.59
2019-04-01T03:55:56.308Z,101657.62
2019-04-01T03:58:24.589Z,101656.55
2019-04-01T04:00:52.905Z,101663.05
2019-04-01T04:03:21.196Z,101663.36
2019-04-01T04:05:49.777Z,101663.82
2019-04-01T04:08:18.080Z,101659.61
2019-04-01T04:10:46.497Z,101658.39
2019-04-01T04:13:14.766Z,101659.14
2019-04-01T04:15:43.150Z,101657.84
2019-04-01T04:18:12.279Z,101659.75
2019-04-01T04:20:40.592Z,101667.09
2019-04-01T04:23:09.145Z,101659.75
2019-04-01T04:25:37.715Z,101657.37
2019-04-01T04:28:06.012Z,101661.97
2019-04-01T04:30:34.318Z,101654.57
2019-04-01T04:33:02.618Z,101654.41
2019-04-01T04:35:30.939Z,101651.11
2019-04-01T04:37:59.213Z,101655.17
2019-04-01T04:40:27.524Z,101657.09
2019-04-01T04:42:55.834Z,101649.05
2019-04-01T04:45:24.454Z,101659.77
2019-04-01T04:47:52.737Z,101655.09
2019-04-01T04:50:21.023Z,101654.55
2019-04-01T04:52:49.335Z,101648.98
2019-04-01T04:55:17.638Z,101651.73
2019-04-01T04:57:46.240Z,101648.44
2019-04-01T05:00:14.705Z,101655.84
2019-04-01T05:02:43.009Z,101649.89
2019-04-01T05:05:11.303Z,101650.20
2019-04-01T05:07:39.611Z,101654.02
2019-04-01T05:10:08.168Z,101647.60
2019-04-01T05:12:36.464Z,101644.54
2019-04-01T05:15:06.709Z,101647.37
2019-04-01T05:17:35.276Z,101649.28
2019-04-01T05:20:05.478Z,101643.61
2019-04-01T05:22:34.561Z,101654.64
2019-04-01T05:25:04.091Z,101646.38
2019-04-01T05:27:32.656Z,101657.84
2019-04-01T05:30:01.015Z,101654.25
2019-04-01T05:32:30.669Z,101649.59
2019-04-01T05:35:00.633Z,101654.40
2019-04-01T05:39:01.183Z,101652.41
2019-04-01T05:41:29.565Z,101657.61
2019-04-01T05:43:58.189Z,101660.75
2019-04-01T05:46:26.552Z,101660.97
2019-04-01T05:48:54.863Z,101665.65
2019-04-01T05:51:23.224Z,101663.73
2019-04-01T05:53:51.531Z,101670.67
2019-04-01T05:56:19.827Z,101668.54
2019-04-01T05:58:48.513Z,101670.28
2019-04-01T06:01:18.717Z,101668.97
2019-04-01T06:03:47.048Z,101669.66
2019-04-01T06:06:15.699Z,101670.64
2019-04-01T06:08:44.259Z,101669.61
2019-04-01T06:11:12.553Z,101673.15
2019-04-01T06:13:40.891Z,101665.34
2019-04-01T06:16:09.248Z,101663.03
2019-04-01T06:18:37.704Z,101658.83
2019-04-01T06:21:06.079Z,101656.37
2019-04-01T06:23:34.446Z,101651.84
2019-04-01T06:26:02.906Z,101651.89
2019-04-01T06:28:31.195Z,101653.09
2019-04-01T06:30:59.876Z,101654.80
2019-04-01T06:33:28.700Z,101653.08
2019-04-01T06:35:57.274Z,101656.39
2019-04-01T06:38:25.839Z,101652.46
2019-04-01T06:40:54.155Z,101655.84
2019-04-01T06:43:22.473Z,101647.36
2019-04-01T06:45:50.746Z,101653.40
2019-04-01T06:48:19.049Z,101652.72
2019-04-01T06:50:47.345Z,101655.42
2019-04-01T06:53:15.732Z,101661.20
2019-04-01T06:55:44.392Z,101653.47
2019-04-01T06:58:12.778Z,101653.49
2019-04-01T07:00:41.053Z,101651.66
2019-04-01T07:03:09.432Z,101657.89
2019-04-01T07:05:37.821Z,101651.86
2019-04-01T07:08:06.142Z,101660.36
2019-04-01T07:10:34.969Z,101649.69
2019-04-01T07:13:03.378Z,101655.57
2019-04-01T07:15:31.711Z,101659.31
2019-04-01T07:18:00.095Z,101656.27
2019-04-01T07:20:28.779Z,101650.64
2019-04-01T07:22:57.038Z,101650.02
2019-04-01T07:25:25.639Z,101645.15
2019-04-01T07:27:54.344Z,101656.06
2019-04-01T07:30:22.796Z,101647.56
2019-04-01T07:32:51.104Z,101649.14
2019-04-01T07:35:19.494Z,101647.63
2019-04-01T07:37:47.866Z,101654.43
2019-04-01T07:40:16.529Z,101648.27
2019-04-01T07:42:44.819Z,101649.64
2019-04-01T07:45:13.488Z,101636.61
2019-04-01T07:47:41.773Z,101639.55
2019-04-01T07:50:12.501Z,101641.11
2019-04-01T07:52:41.193Z,101642.54
2019-04-01T07:55:09.660Z,101638.48
2019-04-01T07:57:38.374Z,101645.62
2019-04-01T08:00:07.250Z,101639.35
2019-04-01T08:02:35.625Z,101627.93
2019-04-01T08:05:04.843Z,101632.34
2019-04-01T08:07:33.401Z,101629.47
2019-04-01T08:10:01.693Z,101626.92
2019-04-01T08:12:30.272Z,101623.02
2019-04-01T08:14:58.557Z,101626.47
2019-04-01T08:17:26.867Z,101622.75
2019-04-01T08:19:55.226Z,101626.87
2019-04-01T08:22:23.549Z,101624.93
2019-04-01T08:24:51.846Z,101628.95
2019-04-01T08:27:20.176Z,101628.23
2019-04-01T08:29:48.493Z,101629.55
2019-04-01T08:32:16.805Z,101628.17
2019-04-01T08:34:45.199Z,101630.19
2019-04-01T08:37:13.555Z,101628.36
2019-04-01T08:39:41.862Z,101628.83
2019-04-01T08:42:10.337Z,101630.41
2019-04-01T08:44:38.998Z,101632.11
2019-04-01T08:47:07.598Z,101629.09
2019-04-01T08:49:35.940Z,101623.86
2019-04-01T08:52:04.728Z,101625.91
2019-04-01T08:54:33.029Z,101629.76
2019-04-01T08:57:01.377Z,101617.30
2019-04-01T08:59:29.713Z,101638.67
2019-04-01T09:01:58.065Z,101622.23
2019-04-01T09:04:26.377Z,101615.36
2019-04-01T09:06:55.014Z,101618.84
2019-04-01T09:09:24.258Z,101609.72
2019-04-01T09:11:54.109Z,101607.80
2019-04-01T09:14:23.118Z,101612.72
2019-04-01T09:16:51.959Z,101605.59
2019-04-01T09:19:20.244Z,101599.75
2019-04-01T09:21:48.809Z,101596.16
2019-04-01T09:24:17.132Z,101602.73
2019-04-01T09:26:45.435Z,101604.19
2019-04-01T09:29:13.731Z,101600.25
2019-04-01T09:31:42.124Z,101588.19
2019-04-01T09:34:10.421Z,101592.03
2019-04-01T09:36:39.035Z,101585.09
2019-04-01T09:39:07.942Z,101584.62
2019-04-01T09:41:36.228Z,101573.28
2019-04-01T09:44:04.619Z,101575.44
2019-04-01T09:46:32.993Z,101572.44
2019-04-01T09:49:01.636Z,101559.19
2019-04-01T09:51:30.242Z,101563.46
2019-04-01T09:53:58.628Z,101557.34
2019-04-01T09:56:27.180Z,101550.77
2019-04-01T09:58:55.775Z,101546.72
2019-04-01T10:01:24.349Z,101546.34
2019-04-01T10:03:52.664Z,101553.98
2019-04-01T10:06:20.948Z,101548.00
2019-04-01T10:08:49.255Z,101543.91
2019-04-01T10:11:17.824Z,101544.88
2019-04-01T10:13:46.209Z,101523.80
2019-04-01T10:16:14.833Z,101530.46
2019-04-01T10:18:43.150Z,101523.87
2019-04-01T10:21:11.514Z,101528.88
2019-04-01T10:23:39.899Z,101522.89
2019-04-01T10:26:08.202Z,101519.27
2019-04-01T10:28:36.545Z,101512.05
2019-04-01T10:31:05.001Z,101514.75
2019-04-01T10:33:33.679Z,101511.98
2019-04-01T10:36:02.267Z,101503.41
2019-04-01T10:38:30.558Z,101503.12
2019-04-01T10:40:58.967Z,101500.22
2019-04-01T10:43:27.266Z,101493.23
2019-04-01T10:45:55.883Z,101502.69
2019-04-01T10:48:24.227Z,101493.89
2019-04-01T10:50:52.689Z,101486.62
2019-04-01T10:53:21.085Z,101483.01
2019-04-01T10:55:49.404Z,101477.97
2019-04-01T10:58:18.035Z,101467.92
2019-04-01T11:00:46.452Z,101471.80
2019-04-01T11:03:15.108Z,101465.78
2019-04-01T11:05:43.447Z,101468.45
2019-04-01T11:08:12.227Z,101469.88
2019-04-01T11:10:40.493Z,101469.77
2019-04-01T11:13:08.794Z,101458.23
2019-04-01T11:15:37.113Z,101449.65
2019-04-01T11:18:05.436Z,101460.22
2019-04-01T11:20:33.757Z,101445.52
2019-04-01T11:23:02.815Z,101440.41
2019-04-01T11:25:31.831Z,101455.38
2019-04-01T11:28:00.122Z,101444.75
2019-04-01T11:30:28.444Z,101435.80
2019-04-01T11:32:56.766Z,101440.46
2019-04-01T11:35:25.073Z,101434.08
2019-04-01T11:37:53.349Z,101435.41
2019-04-01T11:40:21.680Z,101428.52
2019-04-01T11:42:50.025Z,101428.24
2019-04-01T11:45:18.310Z,101416.03
2019-04-01T11:47:46.613Z,101408.52
2019-04-01T11:50:15.106Z,101414.22
2019-04-01T11:52:43.770Z,101411.52
2019-04-01T11:55:12.121Z,101401.70
2019-04-01T11:57:40.979Z,101406.36
2019-04-01T12:00:13.263Z,101398.19
2019-04-01T12:02:42.181Z,101396.64
2019-04-01T12:05:10.972Z,101400.66
2019-04-01T12:07:39.324Z,101389.43
2019-04-01T12:10:08.325Z,101383.32
2019-04-01T12:12:36.628Z,101376.20
2019-04-01T12:15:06.550Z,101371.12
2019-04-01T12:17:35.338Z,101374.52
2019-04-01T12:20:04.521Z,101366.64
2019-04-01T12:22:32.811Z,101372.70
2019-04-01T12:25:01.143Z,101363.87
2019-04-01T12:27:29.437Z,101365.11
2019-04-01T12:29:58.236Z,101353.46
2019-04-01T12:32:26.546Z,101353.25
2019-04-01T12:34:54.901Z,101354.58
2019-04-01T12:37:23.196Z,101350.74
2019-04-01T12:39:51.543Z,101346.45
2019-04-01T12:42:19.853Z,101333.73
2019-04-01T12:44:48.164Z,101336.61
2019-04-01T12:47:16.799Z,101338.30
2019-04-01T12:49:45.105Z,101321.03
2019-04-01T12:52:13.856Z,101319.02
2019-04-01T12:54:42.140Z,101318.42
2019-04-01T12:57:10.815Z,101317.63
2019-04-01T12:59:39.122Z,101311.22
2019-04-01T13:02:07.780Z,101302.17
2019-04-01T13:04:36.301Z,101297.18
2019-04-01T13:07:05.240Z,101305.05
2019-04-01T13:09:33.875Z,101292.98
2019-04-01T13:12:02.261Z,101289.21
2019-04-01T13:14:30.595Z,101284.55
2019-04-01T13:16:58.919Z,101275.19
2019-04-01T13:19:27.562Z,101267.68
2019-04-01T13:21:55.863Z,101268.70
2019-04-01T13:24:24.153Z,101263.38
2019-04-01T13:26:52.475Z,101255.78
2019-04-01T13:29:20.783Z,101258.83
2019-04-01T13:31:49.148Z,101245.55
2019-04-01T13:34:20.125Z,101246.52
2019-04-01T13:36:47.604Z,101242.23
2019-04-01T13:39:15.958Z,101233.56
2019-04-01T13:41:45.492Z,101223.34
2019-04-01T13:44:14.415Z,101218.30
2019-04-01T13:46:42.994Z,101218.16
2019-04-01T13:49:11.318Z,101215.59
2019-04-01T13:51:43.031Z,101216.95
2019-04-01T13:54:11.426Z,101206.02
2019-04-01T13:56:40.398Z,101205.89
2019-04-01T13:59:09.965Z,101207.38
2019-04-01T14:01:39.108Z,101205.91
2019-04-01T14:04:07.432Z,101194.95
2019-04-01T14:06:35.755Z,101195.64
2019-04-01T14:09:06.243Z,101193.38
2019-04-01T14:11:34.592Z,101187.56
2019-04-01T14:14:02.990Z,101189.67
2019-04-01T14:16:31.292Z,101177.92
2019-04-01T14:18:59.595Z,101175.59
2019-04-01T14:21:27.936Z,101178.61
2019-04-01T14:23:56.238Z,101171.34
2019-04-01T14:26:24.547Z,101164.44
2019-04-01T14:28:53.010Z,101159.52
2019-04-01T14:31:21.337Z,101161.17
2019-04-01T14:33:49.627Z,101163.18
2019-04-01T14:36:17.929Z,101152.59
2019-04-01T14:38:46.271Z,101146.80
2019-04-01T14:41:14.527Z,101150.95
2019-04-01T14:43:42.827Z,101138.17
2019-04-01T14:46:11.214Z,101137.67
2019-04-01T14:48:40.085Z,101131.55
2019-04-01T14:51:08.843Z,101127.94
2019-04-01T14:53:37.951Z,101119.16
2019-04-01T14:56:06.491Z,101111.86
2019-04-01T14:58:34.821Z,101111.05
2019-04-01T15:01:03.135Z,101111.55
2019-04-01T15:03:31.745Z,101111.05
2019-04-01T15:06:00.334Z,101100.30
2019-04-01T15:08:28.651Z,101094.85
2019-04-01T15:10:57.305Z,101095.35
2019-04-01T15:13:25.624Z,101088.05
2019-04-01T15:15:54.172Z,101084.91
2019-04-01T15:18:22.830Z,101073.66
2019-04-01T15:20:51.127Z,101076.12
2019-04-01T15:23:19.802Z,101074.82
2019-04-01T15:25:48.089Z,101070.16
2019-04-01T15:28:16.407Z,101065.20
2019-04-01T15:30:44.759Z,101061.73
2019-04-01T15:33:13.112Z,101060.05
2019-04-01T15:35:41.687Z,101056.44
2019-04-01T15:38:10.384Z,101059.91
2019-04-01T15:40:38.671Z,101044.00
2019-04-01T15:43:06.966Z,101043.52
2019-04-01T15:45:35.740Z,101043.20
2019-04-01T15:48:04.135Z,101039.55
2019-04-01T15:50:32.449Z,101033.09
2019-04-01T15:53:01.014Z,101027.95
2019-04-01T15:55:29.316Z,101026.80
2019-04-01T15:57:57.627Z,101025.80
2019-04-01T16:00:25.918Z,101016.70
2019-04-01T16:02:54.230Z,101011.72
2019-04-01T16:05:22.562Z,101017.84
2019-04-01T16:07:50.852Z,101009.58
2019-04-01T16:10:20.966Z,101009.07
2019-04-01T16:12:49.322Z,101011.55
2019-04-01T16:15:17.738Z,101002.30
2019-04-01T16:17:46.391Z,100996.18
2019-04-01T16:20:14.855Z,100996.01
2019-04-01T16:22:43.787Z,100996.02
2019-04-01T16:25:13.420Z,100994.84
2019-04-01T16:27:43.070Z,100996.34
2019-04-01T16:30:11.538Z,100985.40
2019-04-01T16:32:39.883Z,100985.58
2019-04-01T16:35:08.286Z,100986.08
2019-04-01T16:37:36.621Z,100990.38
2019-04-01T16:40:06.306Z,100978.80
2019-04-01T16:42:34.730Z,100976.80
2019-04-01T16:45:04.897Z,100978.95
2019-04-01T16:47:33.215Z,100978.27
2019-04-01T16:50:01.537Z,100972.16
2019-04-01T16:52:30.147Z,100983.75
2019-04-01T16:55:00.907Z,100975.28
2019-04-01T16:57:29.467Z,100972.14
2019-04-01T16:59:57.759Z,100975.28
2019-04-01T17:02:26.082Z,100975.46
2019-04-01T17:04:54.396Z,100968.84
2019-04-01T17:07:22.794Z,100967.84
2019-04-01T17:09:51.090Z,100965.02
2019-04-01T17:12:19.385Z,100966.84
2019-04-01T17:14:47.706Z,100964.52
2019-04-01T17:17:16.001Z,100961.88
2019-04-01T17:19:44.577Z,100964.66
2019-04-01T17:22:12.864Z,100959.52
2019-04-01T17:24:41.183Z,100961.95
2019-04-01T17:27:11.999Z,100956.01
2019-04-01T17:29:42.606Z,100956.65
2019-04-01T17:32:10.901Z,100957.61
2019-04-01T17:34:39.226Z,100954.45
2019-04-01T17:37:08.291Z,100955.27
2019-04-01T17:39:37.520Z,100953.42
2019-04-01T17:42:06.341Z,100949.41
2019-04-01T17:44:34.736Z,100945.12
2019-04-01T17:47:03.025Z,100943.28
2019-04-01T17:49:31.440Z,100942.77
2019-04-01T17:51:59.719Z,100944.53
2019-04-01T17:54:28.298Z,100941.20
2019-04-01T17:56:56.602Z,100944.50
2019-04-01T17:59:25.294Z,100940.33
2019-04-01T18:01:56.862Z,100933.52
2019-04-01T18:04:23.717Z,100933.97
2019-04-01T18:06:52.098Z,100938.73
2019-04-01T18:09:20.450Z,100928.16
2019-04-01T18:11:48.772Z,100926.95
2019-04-01T18:14:17.065Z,100921.97
2019-04-01T18:16:45.395Z,100926.07
2019-04-01T18:19:13.672Z,100919.07
2019-04-01T18:21:42.001Z,100923.47
2019-04-01T18:24:10.355Z,100923.80
2019-04-01T18:26:39.070Z,100919.44
2019-04-01T18:29:07.374Z,100923.55
2019-04-01T18:31:35.666Z,100923.36
2019-04-01T18:34:04.001Z,100922.84
2019-04-01T18:36:34.837Z,100917.67
2019-04-01T18:39:03.958Z,100920.78
2019-04-01T18:41:33.204Z,100921.87
2019-04-01T18:44:02.341Z,100922.67
2019-04-01T18:46:30.736Z,100917.50
2019-04-01T18:48:59.019Z,100912.20
2019-04-01T18:51:27.348Z,100910.84
2019-04-01T18:53:55.666Z,100912.00
2019-04-01T18:56:24.000Z,100912.95
2019-04-01T18:58:53.139Z,100910.26
2019-04-01T19:01:22.395Z,100906.56
2019-04-01T19:03:50.688Z,100904.89
2019-04-01T19:06:19.015Z,100909.43
2019-04-01T19:08:47.335Z,100910.71
2019-04-01T19:11:15.672Z,100910.31
2019-04-01T19:13:43.984Z,100909.45
2019-04-01T19:16:15.468Z,100904.61
2019-04-01T19:18:42.645Z,100904.56
2019-04-01T19:21:10.972Z,100905.84
2019-04-01T19:23:39.283Z,100903.80
2019-04-01T19:26:10.060Z,100899.11
2019-04-01T19:28:37.731Z,100895.61
2019-04-01T19:31:06.025Z,100898.69
2019-04-01T19:33:34.342Z,100894.83
2019-04-01T19:36:02.737Z,100897.91
2019-04-01T19:38:31.064Z,100895.36
2019-04-01T19:40:59.910Z,100900.09
2019-04-01T19:43:28.499Z,100903.99
2019-04-01T19:45:57.122Z,100903.09
2019-04-01T19:48:25.418Z,100902.22
2019-04-01T19:50:53.726Z,100908.26
2019-04-01T19:53:22.104Z,100909.52
2019-04-01T19:55:50.415Z,100908.13
2019-04-01T19:58:18.738Z,100907.92
2019-04-01T20:00:47.106Z,100906.55
2019-04-01T20:03:15.782Z,100908.97
2019-04-01T20:05:44.096Z,100904.48
2019-04-01T20:08:14.098Z,100904.61
2019-04-01T20:10:42.700Z,100909.33
2019-04-01T20:13:11.019Z,100896.12
2019-04-01T20:15:40.349Z,100896.55
2019-04-01T20:18:09.373Z,100898.64
2019-04-01T20:20:37.687Z,100900.08
2019-04-01T20:23:05.989Z,100890.20
2019-04-01T20:25:34.288Z,100886.05
2019-04-01T20:28:02.596Z,100891.98
2019-04-01T20:30:31.221Z,100886.17
2019-04-01T20:32:59.624Z,100885.13
2019-04-01T20:35:28.329Z,100883.77
2019-04-01T20:37:58.276Z,100879.14
2019-04-01T20:40:26.649Z,100876.52
2019-04-01T20:42:54.953Z,100874.98
2019-04-01T20:45:23.624Z,100877.90
2019-04-01T20:47:51.920Z,100870.22
2019-04-01T20:50:20.253Z,100870.13
2019-04-01T20:52:50.089Z,100859.60
2019-04-01T20:55:18.636Z,100858.93
2019-04-01T20:57:46.919Z,100858.30
2019-04-01T21:00:15.497Z,100855.06
2019-04-01T21:02:44.057Z,100859.11
2019-04-01T21:05:12.435Z,100862.84
2019-04-01T21:07:40.713Z,100854.40
2019-04-01T21:10:09.562Z,100849.70
2019-04-01T21:12:38.158Z,100851.56
2019-04-01T21:15:08.181Z,100847.34
2019-04-01T21:17:36.583Z,100846.30
2019-04-01T21:20:07.908Z,100845.14
2019-04-01T21:22:36.906Z,100846.84
2019-04-01T21:25:06.752Z,100842.17
2019-04-01T21:27:35.049Z,100835.17
2019-04-01T21:30:04.982Z,100835.92
2019-04-01T21:32:33.285Z,100837.17
2019-04-01T21:35:01.588Z,100829.63
2019-04-01T21:37:29.968Z,100824.45
2019-04-01T21:39:59.153Z,100828.78
2019-04-01T21:42:27.853Z,100824.28
2019-04-01T21:44:56.160Z,100828.98
2019-04-01T21:47:24.471Z,100826.40
2019-04-01T21:49:53.041Z,100818.94
2019-04-01T21:52:21.856Z,100817.22
2019-04-01T21:54:50.137Z,100813.66
2019-04-01T21:57:20.545Z,100806.33
2019-04-01T21:59:48.987Z,100800.33
2019-04-01T22:02:17.285Z,100792.83
2019-04-01T22:04:45.608Z,100792.02
2019-04-01T22:07:14.180Z,100787.03
2019-04-01T22:09:42.479Z,100782.98
2019-04-01T22:12:10.777Z,100778.08
2019-04-01T22:14:39.102Z,100776.77
2019-04-01T22:17:07.386Z,100778.83
2019-04-01T22:19:35.691Z,100772.34
2019-04-01T22:22:03.998Z,100771.48
2019-04-01T22:24:33.027Z,100769.50
2019-04-01T22:27:02.215Z,100767.96
2019-04-01T22:29:30.527Z,100766.69
2019-04-01T22:31:58.826Z,100766.13
2019-04-01T22:34:27.107Z,100755.90
2019-04-01T22:36:55.701Z,100752.82
2019-04-01T22:39:27.319Z,100752.37
2019-04-01T22:41:54.311Z,100752.03
2019-04-01T22:44:23.358Z,100745.29
2019-04-01T22:46:52.201Z,100744.73
2019-04-01T22:49:20.789Z,100745.13
2019-04-01T22:51:49.373Z,100739.41
2019-04-01T22:54:17.663Z,100741.23
2019-04-01T22:56:45.965Z,100735.69
2019-04-01T22:59:14.526Z,100728.48
2019-04-01T23:01:44.172Z,100725.16
2019-04-01T23:04:13.374Z,100726.83
2019-04-01T23:06:42.001Z,100724.47
2019-04-01T23:09:10.590Z,100720.80
2019-04-01T23:11:38.921Z,100715.73
2019-04-01T23:14:07.563Z,100724.08
2019-04-01T23:16:35.875Z,100715.84
2019-04-01T23:19:05.068Z,100707.50
2019-04-01T23:21:33.564Z,100713.48
2019-04-01T23:24:01.890Z,100709.36
2019-04-01T23:26:30.204Z,100706.02
2019-04-01T23:28:58.494Z,100704.38
2019-04-01T23:31:26.795Z,100707.11
2019-04-01T23:33:55.110Z,100700.70
2019-04-01T23:36:23.418Z,100700.33
2019-04-01T23:38:51.800Z,100694.89
2019-04-01T23:41:20.102Z,100692.47
2019-04-01T23:43:48.417Z,100692.61
2019-04-01T23:46:16.745Z,100684.67
2019-04-01T23:48:45.053Z,100682.05
2019-04-01T23:51:13.343Z,100678.86
2019-04-01T23:53:41.662Z,100678.06
2019-04-01T23:56:10.010Z,100674.87
2019-04-01T23:58:38.305Z,100666.45
